sensor_id;sensor_type;location;lat;lon;timestamp;P1;durP1;ratioP1;P2;durP2;ratioP2
81229;SDS011;70701;44.452;18.652;2023-12-04T00:01:00;97.33;;;50.10;;
81229;SDS011;70701;44.452;18.652;2023-12-04T00:03:26;102.60;;;49.73;;
81229;SDS011;70701;44.452;18.652;2023-12-04T00:05:51;87.67;;;43.93;;
81229;SDS011;70701;44.452;18.652;2023-12-04T00:08:17;86.93;;;44.30;;
81229;SDS011;70701;44.452;18.652;2023-12-04T00:10:42;96.17;;;47.27;;
81229;SDS011;70701;44.452;18.652;2023-12-04T00:13:08;113.23;;;51.57;;
81229;SDS011;70701;44.452;18.652;2023-12-04T00:15:34;101.23;;;50.17;;
81229;SDS011;70701;44.452;18.652;2023-12-04T00:18:00;121.30;;;52.77;;
81229;SDS011;70701;44.452;18.652;2023-12-04T00:20:25;133.63;;;54.63;;
81229;SDS011;70701;44.452;18.652;2023-12-04T00:22:51;94.27;;;45.87;;
81229;SDS011;70701;44.452;18.652;2023-12-04T00:25:17;108.80;;;47.67;;
81229;SDS011;70701;44.452;18.652;2023-12-04T00:27:42;118.10;;;47.60;;
81229;SDS011;70701;44.452;18.652;2023-12-04T00:30:08;112.30;;;48.47;;
81229;SDS011;70701;44.452;18.652;2023-12-04T00:32:34;122.50;;;49.87;;
81229;SDS011;70701;44.452;18.652;2023-12-04T00:35:00;118.60;;;48.37;;
81229;SDS011;70701;44.452;18.652;2023-12-04T00:37:26;133.30;;;55.07;;
81229;SDS011;70701;44.452;18.652;2023-12-04T00:39:51;123.57;;;57.27;;
81229;SDS011;70701;44.452;18.652;2023-12-04T00:42:17;100.30;;;49.10;;
81229;SDS011;70701;44.452;18.652;2023-12-04T00:44:43;83.07;;;42.73;;
81229;SDS011;70701;44.452;18.652;2023-12-04T00:47:08;94.27;;;46.77;;
81229;SDS011;70701;44.452;18.652;2023-12-04T00:49:34;87.13;;;43.63;;
81229;SDS011;70701;44.452;18.652;2023-12-04T00:52:01;97.73;;;45.77;;
81229;SDS011;70701;44.452;18.652;2023-12-04T00:54:27;90.93;;;44.93;;
81229;SDS011;70701;44.452;18.652;2023-12-04T00:56:53;90.23;;;45.00;;
81229;SDS011;70701;44.452;18.652;2023-12-04T00:59:18;97.20;;;42.20;;
81229;SDS011;70701;44.452;18.652;2023-12-04T01:01:44;81.63;;;43.07;;
81229;SDS011;70701;44.452;18.652;2023-12-04T01:04:10;82.90;;;42.57;;
81229;SDS011;70701;44.452;18.652;2023-12-04T01:06:36;99.23;;;46.83;;
81229;SDS011;70701;44.452;18.652;2023-12-04T01:09:01;107.30;;;48.83;;
81229;SDS011;70701;44.452;18.652;2023-12-04T01:11:27;88.60;;;43.10;;
81229;SDS011;70701;44.452;18.652;2023-12-04T01:13:53;76.50;;;38.23;;
81229;SDS011;70701;44.452;18.652;2023-12-04T01:16:18;63.63;;;32.17;;
81229;SDS011;70701;44.452;18.652;2023-12-04T01:18:44;70.23;;;34.03;;
81229;SDS011;70701;44.452;18.652;2023-12-04T01:21:10;69.20;;;33.90;;
81229;SDS011;70701;44.452;18.652;2023-12-04T01:23:36;65.23;;;34.30;;
81229;SDS011;70701;44.452;18.652;2023-12-04T01:26:02;69.27;;;32.80;;
81229;SDS011;70701;44.452;18.652;2023-12-04T01:28:29;85.47;;;40.17;;
81229;SDS011;70701;44.452;18.652;2023-12-04T01:30:54;79.20;;;37.57;;
81229;SDS011;70701;44.452;18.652;2023-12-04T01:33:20;71.80;;;37.10;;
81229;SDS011;70701;44.452;18.652;2023-12-04T01:35:46;82.27;;;39.80;;
81229;SDS011;70701;44.452;18.652;2023-12-04T01:38:11;84.57;;;42.43;;
81229;SDS011;70701;44.452;18.652;2023-12-04T01:40:37;94.80;;;44.57;;
81229;SDS011;70701;44.452;18.652;2023-12-04T01:43:03;95.40;;;44.67;;
81229;SDS011;70701;44.452;18.652;2023-12-04T01:45:28;90.30;;;44.63;;
81229;SDS011;70701;44.452;18.652;2023-12-04T01:47:54;104.13;;;47.07;;
81229;SDS011;70701;44.452;18.652;2023-12-04T01:50:20;95.53;;;45.37;;
81229;SDS011;70701;44.452;18.652;2023-12-04T01:52:47;82.87;;;43.00;;
81229;SDS011;70701;44.452;18.652;2023-12-04T01:55:13;86.40;;;42.23;;
81229;SDS011;70701;44.452;18.652;2023-12-04T01:57:40;79.10;;;38.13;;
81229;SDS011;70701;44.452;18.652;2023-12-04T02:00:06;77.37;;;37.67;;
81229;SDS011;70701;44.452;18.652;2023-12-04T02:02:38;80.07;;;39.10;;
81229;SDS011;70701;44.452;18.652;2023-12-04T02:05:05;70.73;;;38.00;;
81229;SDS011;70701;44.452;18.652;2023-12-04T02:07:33;72.10;;;37.03;;
81229;SDS011;70701;44.452;18.652;2023-12-04T02:09:59;68.90;;;36.27;;
81229;SDS011;70701;44.452;18.652;2023-12-04T02:12:25;63.60;;;34.33;;
81229;SDS011;70701;44.452;18.652;2023-12-04T02:14:51;58.03;;;29.00;;
81229;SDS011;70701;44.452;18.652;2023-12-04T02:17:17;52.73;;;28.77;;
81229;SDS011;70701;44.452;18.652;2023-12-04T02:19:44;62.03;;;31.73;;
81229;SDS011;70701;44.452;18.652;2023-12-04T02:22:10;54.47;;;28.93;;
81229;SDS011;70701;44.452;18.652;2023-12-04T02:24:36;56.90;;;30.17;;
81229;SDS011;70701;44.452;18.652;2023-12-04T02:27:04;74.27;;;39.20;;
81229;SDS011;70701;44.452;18.652;2023-12-04T02:29:41;95.10;;;48.73;;
81229;SDS011;70701;44.452;18.652;2023-12-04T02:32:14;96.10;;;46.40;;
81229;SDS011;70701;44.452;18.652;2023-12-04T02:34:42;93.80;;;47.07;;
81229;SDS011;70701;44.452;18.652;2023-12-04T02:37:11;76.77;;;37.63;;
81229;SDS011;70701;44.452;18.652;2023-12-04T02:39:38;68.80;;;35.40;;
81229;SDS011;70701;44.452;18.652;2023-12-04T02:42:04;70.67;;;36.43;;
81229;SDS011;70701;44.452;18.652;2023-12-04T02:44:29;68.70;;;39.33;;
81229;SDS011;70701;44.452;18.652;2023-12-04T02:46:55;89.10;;;42.03;;
81229;SDS011;70701;44.452;18.652;2023-12-04T02:49:21;74.20;;;37.67;;
81229;SDS011;70701;44.452;18.652;2023-12-04T02:51:47;70.60;;;36.67;;
81229;SDS011;70701;44.452;18.652;2023-12-04T02:54:12;68.80;;;35.30;;
81229;SDS011;70701;44.452;18.652;2023-12-04T02:56:38;86.37;;;43.20;;
81229;SDS011;70701;44.452;18.652;2023-12-04T02:59:04;83.10;;;41.07;;
81229;SDS011;70701;44.452;18.652;2023-12-04T03:01:29;69.70;;;35.90;;
81229;SDS011;70701;44.452;18.652;2023-12-04T03:03:55;64.73;;;35.10;;
81229;SDS011;70701;44.452;18.652;2023-12-04T03:06:21;71.33;;;36.77;;
81229;SDS011;70701;44.452;18.652;2023-12-04T03:08:46;66.20;;;36.17;;
81229;SDS011;70701;44.452;18.652;2023-12-04T03:11:12;68.77;;;36.70;;
81229;SDS011;70701;44.452;18.652;2023-12-04T03:13:38;81.87;;;38.87;;
81229;SDS011;70701;44.452;18.652;2023-12-04T03:16:03;77.73;;;40.23;;
81229;SDS011;70701;44.452;18.652;2023-12-04T03:18:29;67.90;;;35.50;;
81229;SDS011;70701;44.452;18.652;2023-12-04T03:20:55;67.97;;;37.20;;
81229;SDS011;70701;44.452;18.652;2023-12-04T03:23:21;71.87;;;37.10;;
81229;SDS011;70701;44.452;18.652;2023-12-04T03:25:46;78.07;;;40.50;;
81229;SDS011;70701;44.452;18.652;2023-12-04T03:28:12;85.33;;;41.73;;
81229;SDS011;70701;44.452;18.652;2023-12-04T03:30:41;76.93;;;40.77;;
81229;SDS011;70701;44.452;18.652;2023-12-04T03:33:10;88.17;;;39.80;;
81229;SDS011;70701;44.452;18.652;2023-12-04T03:35:36;78.63;;;39.80;;
81229;SDS011;70701;44.452;18.652;2023-12-04T03:38:01;83.90;;;39.03;;
81229;SDS011;70701;44.452;18.652;2023-12-04T03:40:27;83.00;;;39.77;;
81229;SDS011;70701;44.452;18.652;2023-12-04T03:42:53;82.87;;;41.63;;
81229;SDS011;70701;44.452;18.652;2023-12-04T03:45:20;73.27;;;38.97;;
81229;SDS011;70701;44.452;18.652;2023-12-04T03:47:46;79.13;;;38.10;;
81229;SDS011;70701;44.452;18.652;2023-12-04T03:50:11;79.30;;;39.00;;
81229;SDS011;70701;44.452;18.652;2023-12-04T03:52:37;72.13;;;37.50;;
81229;SDS011;70701;44.452;18.652;2023-12-04T03:55:03;65.53;;;34.20;;
81229;SDS011;70701;44.452;18.652;2023-12-04T03:57:29;69.70;;;38.10;;
81229;SDS011;70701;44.452;18.652;2023-12-04T03:59:55;77.87;;;39.67;;
81229;SDS011;70701;44.452;18.652;2023-12-04T04:02:21;83.00;;;43.00;;
81229;SDS011;70701;44.452;18.652;2023-12-04T04:04:46;112.77;;;52.07;;
81229;SDS011;70701;44.452;18.652;2023-12-04T04:07:12;97.97;;;49.03;;
81229;SDS011;70701;44.452;18.652;2023-12-04T04:09:39;85.40;;;45.10;;
81229;SDS011;70701;44.452;18.652;2023-12-04T04:12:04;78.00;;;41.13;;
81229;SDS011;70701;44.452;18.652;2023-12-04T04:14:30;69.67;;;37.50;;
81229;SDS011;70701;44.452;18.652;2023-12-04T04:16:56;62.60;;;34.23;;
81229;SDS011;70701;44.452;18.652;2023-12-04T04:19:22;78.70;;;38.73;;
81229;SDS011;70701;44.452;18.652;2023-12-04T04:21:47;95.60;;;42.90;;
81229;SDS011;70701;44.452;18.652;2023-12-04T04:24:13;73.37;;;40.37;;
81229;SDS011;70701;44.452;18.652;2023-12-04T04:26:38;73.13;;;35.93;;
81229;SDS011;70701;44.452;18.652;2023-12-04T04:29:04;65.63;;;33.27;;
81229;SDS011;70701;44.452;18.652;2023-12-04T04:31:30;69.27;;;33.80;;
81229;SDS011;70701;44.452;18.652;2023-12-04T04:33:56;63.60;;;34.30;;
81229;SDS011;70701;44.452;18.652;2023-12-04T04:36:21;66.60;;;37.13;;
81229;SDS011;70701;44.452;18.652;2023-12-04T04:38:47;79.87;;;39.77;;
81229;SDS011;70701;44.452;18.652;2023-12-04T04:41:16;83.00;;;41.03;;
81229;SDS011;70701;44.452;18.652;2023-12-04T04:43:41;61.97;;;34.73;;
81229;SDS011;70701;44.452;18.652;2023-12-04T04:46:08;67.03;;;33.43;;
81229;SDS011;70701;44.452;18.652;2023-12-04T04:48:34;64.13;;;31.50;;
81229;SDS011;70701;44.452;18.652;2023-12-04T04:51:00;67.40;;;34.70;;
81229;SDS011;70701;44.452;18.652;2023-12-04T04:53:26;64.10;;;35.30;;
81229;SDS011;70701;44.452;18.652;2023-12-04T04:55:51;62.63;;;32.57;;
81229;SDS011;70701;44.452;18.652;2023-12-04T04:58:17;59.70;;;32.73;;
81229;SDS011;70701;44.452;18.652;2023-12-04T05:00:43;61.67;;;30.77;;
81229;SDS011;70701;44.452;18.652;2023-12-04T05:03:10;66.23;;;32.10;;
81229;SDS011;70701;44.452;18.652;2023-12-04T05:05:36;53.80;;;28.67;;
81229;SDS011;70701;44.452;18.652;2023-12-04T05:08:01;50.80;;;28.27;;
81229;SDS011;70701;44.452;18.652;2023-12-04T05:10:27;57.87;;;29.20;;
81229;SDS011;70701;44.452;18.652;2023-12-04T05:12:53;57.27;;;29.23;;
81229;SDS011;70701;44.452;18.652;2023-12-04T05:15:18;56.47;;;31.93;;
81229;SDS011;70701;44.452;18.652;2023-12-04T05:17:44;63.90;;;31.43;;
81229;SDS011;70701;44.452;18.652;2023-12-04T05:20:10;68.10;;;36.00;;
81229;SDS011;70701;44.452;18.652;2023-12-04T05:22:36;55.93;;;31.93;;
81229;SDS011;70701;44.452;18.652;2023-12-04T05:25:01;54.97;;;29.63;;
81229;SDS011;70701;44.452;18.652;2023-12-04T05:27:27;59.87;;;30.90;;
81229;SDS011;70701;44.452;18.652;2023-12-04T05:29:53;64.80;;;35.40;;
81229;SDS011;70701;44.452;18.652;2023-12-04T05:32:19;83.80;;;42.20;;
81229;SDS011;70701;44.452;18.652;2023-12-04T05:34:44;100.87;;;50.00;;
81229;SDS011;70701;44.452;18.652;2023-12-04T05:37:10;82.80;;;44.17;;
81229;SDS011;70701;44.452;18.652;2023-12-04T05:39:35;88.20;;;48.20;;
81229;SDS011;70701;44.452;18.652;2023-12-04T05:42:01;70.33;;;37.43;;
81229;SDS011;70701;44.452;18.652;2023-12-04T05:44:28;58.40;;;31.70;;
81229;SDS011;70701;44.452;18.652;2023-12-04T05:46:54;70.97;;;38.93;;
81229;SDS011;70701;44.452;18.652;2023-12-04T05:49:19;85.23;;;40.40;;
81229;SDS011;70701;44.452;18.652;2023-12-04T05:51:45;70.40;;;36.63;;
81229;SDS011;70701;44.452;18.652;2023-12-04T05:54:11;99.63;;;45.83;;
81229;SDS011;70701;44.452;18.652;2023-12-04T05:56:37;123.70;;;53.17;;
81229;SDS011;70701;44.452;18.652;2023-12-04T05:59:02;103.27;;;52.43;;
81229;SDS011;70701;44.452;18.652;2023-12-04T06:01:28;91.77;;;46.13;;
81229;SDS011;70701;44.452;18.652;2023-12-04T06:03:54;105.80;;;53.00;;
81229;SDS011;70701;44.452;18.652;2023-12-04T06:06:19;100.43;;;50.97;;
81229;SDS011;70701;44.452;18.652;2023-12-04T06:08:45;97.47;;;49.27;;
81229;SDS011;70701;44.452;18.652;2023-12-04T06:11:11;96.50;;;51.83;;
81229;SDS011;70701;44.452;18.652;2023-12-04T06:13:36;87.33;;;45.07;;
81229;SDS011;70701;44.452;18.652;2023-12-04T06:16:02;106.23;;;50.23;;
81229;SDS011;70701;44.452;18.652;2023-12-04T06:18:28;116.37;;;53.27;;
81229;SDS011;70701;44.452;18.652;2023-12-04T06:20:54;103.67;;;49.23;;
81229;SDS011;70701;44.452;18.652;2023-12-04T06:23:19;78.83;;;42.63;;
81229;SDS011;70701;44.452;18.652;2023-12-04T06:25:45;80.47;;;42.40;;
81229;SDS011;70701;44.452;18.652;2023-12-04T06:28:11;63.93;;;35.60;;
81229;SDS011;70701;44.452;18.652;2023-12-04T06:30:38;49.33;;;28.27;;
81229;SDS011;70701;44.452;18.652;2023-12-04T06:33:04;49.83;;;28.40;;
81229;SDS011;70701;44.452;18.652;2023-12-04T06:35:30;56.20;;;29.63;;
81229;SDS011;70701;44.452;18.652;2023-12-04T06:37:56;62.67;;;30.93;;
81229;SDS011;70701;44.452;18.652;2023-12-04T06:40:30;57.17;;;31.57;;
81229;SDS011;70701;44.452;18.652;2023-12-04T06:42:57;56.80;;;32.47;;
81229;SDS011;70701;44.452;18.652;2023-12-04T06:45:23;73.90;;;38.73;;
81229;SDS011;70701;44.452;18.652;2023-12-04T06:47:50;113.87;;;59.63;;
81229;SDS011;70701;44.452;18.652;2023-12-04T06:50:16;123.93;;;72.70;;
81229;SDS011;70701;44.452;18.652;2023-12-04T06:52:42;131.70;;;70.80;;
81229;SDS011;70701;44.452;18.652;2023-12-04T06:55:08;97.70;;;57.77;;
81229;SDS011;70701;44.452;18.652;2023-12-04T06:57:34;123.60;;;65.23;;
81229;SDS011;70701;44.452;18.652;2023-12-04T07:00:00;143.47;;;76.63;;
81229;SDS011;70701;44.452;18.652;2023-12-04T07:02:25;136.33;;;61.93;;
81229;SDS011;70701;44.452;18.652;2023-12-04T07:04:51;123.33;;;59.40;;
81229;SDS011;70701;44.452;18.652;2023-12-04T07:07:17;113.70;;;53.00;;
81229;SDS011;70701;44.452;18.652;2023-12-04T07:09:42;129.63;;;62.80;;
81229;SDS011;70701;44.452;18.652;2023-12-04T07:12:08;165.97;;;77.43;;
81229;SDS011;70701;44.452;18.652;2023-12-04T07:14:34;183.00;;;89.47;;
81229;SDS011;70701;44.452;18.652;2023-12-04T07:16:59;183.43;;;87.73;;
81229;SDS011;70701;44.452;18.652;2023-12-04T07:19:25;180.97;;;91.07;;
81229;SDS011;70701;44.452;18.652;2023-12-04T07:21:52;171.03;;;84.87;;
81229;SDS011;70701;44.452;18.652;2023-12-04T07:24:18;181.13;;;89.90;;
81229;SDS011;70701;44.452;18.652;2023-12-04T07:26:44;213.17;;;106.57;;
81229;SDS011;70701;44.452;18.652;2023-12-04T07:29:09;220.20;;;106.80;;
81229;SDS011;70701;44.452;18.652;2023-12-04T07:31:36;173.97;;;90.07;;
81229;SDS011;70701;44.452;18.652;2023-12-04T07:34:02;170.73;;;86.27;;
81229;SDS011;70701;44.452;18.652;2023-12-04T07:36:28;208.63;;;100.73;;
81229;SDS011;70701;44.452;18.652;2023-12-04T07:38:54;218.03;;;99.67;;
81229;SDS011;70701;44.452;18.652;2023-12-04T07:41:20;157.60;;;77.50;;
81229;SDS011;70701;44.452;18.652;2023-12-04T07:43:47;146.40;;;73.07;;
81229;SDS011;70701;44.452;18.652;2023-12-04T07:46:12;127.80;;;63.37;;
81229;SDS011;70701;44.452;18.652;2023-12-04T07:48:39;139.07;;;70.20;;
81229;SDS011;70701;44.452;18.652;2023-12-04T07:51:05;141.50;;;74.67;;
81229;SDS011;70701;44.452;18.652;2023-12-04T07:53:32;107.27;;;54.37;;
81229;SDS011;70701;44.452;18.652;2023-12-04T07:56:00;104.60;;;56.57;;
81229;SDS011;70701;44.452;18.652;2023-12-04T07:58:28;95.20;;;49.23;;
81229;SDS011;70701;44.452;18.652;2023-12-04T08:00:54;101.43;;;51.07;;
81229;SDS011;70701;44.452;18.652;2023-12-04T08:03:19;93.80;;;49.20;;
81229;SDS011;70701;44.452;18.652;2023-12-04T08:05:45;100.67;;;53.60;;
81229;SDS011;70701;44.452;18.652;2023-12-04T08:08:11;102.60;;;52.83;;
81229;SDS011;70701;44.452;18.652;2023-12-04T08:10:36;113.13;;;54.93;;
81229;SDS011;70701;44.452;18.652;2023-12-04T08:13:02;92.73;;;50.93;;
81229;SDS011;70701;44.452;18.652;2023-12-04T08:15:28;86.47;;;50.43;;
81229;SDS011;70701;44.452;18.652;2023-12-04T08:17:54;91.70;;;48.87;;
81229;SDS011;70701;44.452;18.652;2023-12-04T08:20:20;87.97;;;50.03;;
81229;SDS011;70701;44.452;18.652;2023-12-04T08:22:47;94.33;;;49.37;;
81229;SDS011;70701;44.452;18.652;2023-12-04T08:25:13;90.23;;;47.83;;
81229;SDS011;70701;44.452;18.652;2023-12-04T08:27:39;95.83;;;52.30;;
81229;SDS011;70701;44.452;18.652;2023-12-04T08:30:05;90.57;;;49.93;;
81229;SDS011;70701;44.452;18.652;2023-12-04T08:32:31;90.50;;;47.53;;
81229;SDS011;70701;44.452;18.652;2023-12-04T08:34:57;86.80;;;48.60;;
81229;SDS011;70701;44.452;18.652;2023-12-04T08:37:22;84.27;;;45.37;;
81229;SDS011;70701;44.452;18.652;2023-12-04T08:39:48;82.23;;;44.40;;
81229;SDS011;70701;44.452;18.652;2023-12-04T08:42:14;82.00;;;45.43;;
81229;SDS011;70701;44.452;18.652;2023-12-04T08:44:39;74.20;;;42.47;;
81229;SDS011;70701;44.452;18.652;2023-12-04T08:47:05;83.33;;;47.60;;
81229;SDS011;70701;44.452;18.652;2023-12-04T08:49:31;92.00;;;47.37;;
81229;SDS011;70701;44.452;18.652;2023-12-04T08:51:57;98.83;;;52.03;;
81229;SDS011;70701;44.452;18.652;2023-12-04T08:54:23;101.87;;;53.10;;
81229;SDS011;70701;44.452;18.652;2023-12-04T08:56:50;104.73;;;53.73;;
81229;SDS011;70701;44.452;18.652;2023-12-04T08:59:15;134.07;;;64.87;;
81229;SDS011;70701;44.452;18.652;2023-12-04T09:01:42;129.60;;;67.60;;
81229;SDS011;70701;44.452;18.652;2023-12-04T09:04:09;128.00;;;65.83;;
81229;SDS011;70701;44.452;18.652;2023-12-04T09:06:35;153.70;;;74.07;;
81229;SDS011;70701;44.452;18.652;2023-12-04T09:09:01;132.87;;;63.67;;
81229;SDS011;70701;44.452;18.652;2023-12-04T09:11:27;108.37;;;53.60;;
81229;SDS011;70701;44.452;18.652;2023-12-04T09:13:54;99.50;;;51.50;;
81229;SDS011;70701;44.452;18.652;2023-12-04T09:16:19;131.33;;;61.90;;
81229;SDS011;70701;44.452;18.652;2023-12-04T09:18:45;113.83;;;51.03;;
81229;SDS011;70701;44.452;18.652;2023-12-04T09:21:12;114.23;;;55.27;;
81229;SDS011;70701;44.452;18.652;2023-12-04T09:23:37;93.57;;;47.80;;
81229;SDS011;70701;44.452;18.652;2023-12-04T09:26:03;89.53;;;41.67;;
81229;SDS011;70701;44.452;18.652;2023-12-04T09:28:29;74.20;;;38.53;;
81229;SDS011;70701;44.452;18.652;2023-12-04T09:30:55;68.60;;;34.97;;
81229;SDS011;70701;44.452;18.652;2023-12-04T09:33:20;62.70;;;33.83;;
81229;SDS011;70701;44.452;18.652;2023-12-04T09:35:46;49.13;;;26.03;;
81229;SDS011;70701;44.452;18.652;2023-12-04T09:38:12;41.47;;;25.23;;
81229;SDS011;70701;44.452;18.652;2023-12-04T09:40:37;34.10;;;18.90;;
81229;SDS011;70701;44.452;18.652;2023-12-04T09:43:04;38.43;;;24.10;;
81229;SDS011;70701;44.452;18.652;2023-12-04T09:45:31;35.00;;;19.13;;
81229;SDS011;70701;44.452;18.652;2023-12-04T09:47:58;26.83;;;16.17;;
81229;SDS011;70701;44.452;18.652;2023-12-04T09:50:25;25.97;;;13.80;;
81229;SDS011;70701;44.452;18.652;2023-12-04T09:52:51;31.33;;;15.83;;
81229;SDS011;70701;44.452;18.652;2023-12-04T09:55:18;19.17;;;11.13;;
81229;SDS011;70701;44.452;18.652;2023-12-04T09:57:44;16.50;;;7.80;;
81229;SDS011;70701;44.452;18.652;2023-12-04T10:00:12;11.80;;;6.40;;
81229;SDS011;70701;44.452;18.652;2023-12-04T10:02:42;11.60;;;6.87;;
81229;SDS011;70701;44.452;18.652;2023-12-04T10:05:08;13.37;;;7.50;;
81229;SDS011;70701;44.452;18.652;2023-12-04T10:07:34;11.57;;;6.80;;
81229;SDS011;70701;44.452;18.652;2023-12-04T10:10:02;12.90;;;6.80;;
81229;SDS011;70701;44.452;18.652;2023-12-04T10:12:30;9.47;;;5.73;;
81229;SDS011;70701;44.452;18.652;2023-12-04T10:15:02;10.63;;;6.23;;
81229;SDS011;70701;44.452;18.652;2023-12-04T10:17:33;11.93;;;5.97;;
81229;SDS011;70701;44.452;18.652;2023-12-04T10:22:38;8.27;;;4.60;;
81229;SDS011;70701;44.452;18.652;2023-12-04T10:25:14;10.37;;;5.00;;
81229;SDS011;70701;44.452;18.652;2023-12-04T10:27:41;9.37;;;4.80;;
81229;SDS011;70701;44.452;18.652;2023-12-04T10:30:08;8.33;;;5.30;;
81229;SDS011;70701;44.452;18.652;2023-12-04T10:32:41;8.13;;;4.43;;
81229;SDS011;70701;44.452;18.652;2023-12-04T10:35:07;7.43;;;4.70;;
81229;SDS011;70701;44.452;18.652;2023-12-04T10:37:38;7.57;;;4.60;;
81229;SDS011;70701;44.452;18.652;2023-12-04T10:40:04;9.53;;;5.30;;
81229;SDS011;70701;44.452;18.652;2023-12-04T10:42:34;12.43;;;6.60;;
81229;SDS011;70701;44.452;18.652;2023-12-04T10:45:00;10.53;;;4.93;;
81229;SDS011;70701;44.452;18.652;2023-12-04T10:47:27;9.17;;;5.07;;
81229;SDS011;70701;44.452;18.652;2023-12-04T10:49:55;12.50;;;6.13;;
81229;SDS011;70701;44.452;18.652;2023-12-04T10:52:21;14.07;;;7.13;;
81229;SDS011;70701;44.452;18.652;2023-12-04T10:54:48;11.57;;;6.13;;
81229;SDS011;70701;44.452;18.652;2023-12-04T10:57:28;9.43;;;5.53;;
81229;SDS011;70701;44.452;18.652;2023-12-04T11:00:03;9.70;;;6.33;;
81229;SDS011;70701;44.452;18.652;2023-12-04T11:02:33;10.80;;;6.17;;
81229;SDS011;70701;44.452;18.652;2023-12-04T11:05:18;8.20;;;4.60;;
81229;SDS011;70701;44.452;18.652;2023-12-04T11:08:05;13.93;;;6.00;;
81229;SDS011;70701;44.452;18.652;2023-12-04T11:10:33;10.10;;;5.10;;
81229;SDS011;70701;44.452;18.652;2023-12-04T11:13:06;9.40;;;5.47;;
81229;SDS011;70701;44.452;18.652;2023-12-04T11:15:39;12.53;;;5.77;;
81229;SDS011;70701;44.452;18.652;2023-12-04T11:18:09;9.87;;;5.30;;
81229;SDS011;70701;44.452;18.652;2023-12-04T11:20:40;14.70;;;6.70;;
81229;SDS011;70701;44.452;18.652;2023-12-04T11:23:13;14.95;;;7.18;;
81229;SDS011;70701;44.452;18.652;2023-12-04T11:25:41;8.87;;;5.57;;
81229;SDS011;70701;44.452;18.652;2023-12-04T11:28:10;9.90;;;5.43;;
81229;SDS011;70701;44.452;18.652;2023-12-04T11:30:37;13.57;;;6.70;;
81229;SDS011;70701;44.452;18.652;2023-12-04T11:33:04;8.07;;;4.33;;
81229;SDS011;70701;44.452;18.652;2023-12-04T11:35:30;8.30;;;4.67;;
81229;SDS011;70701;44.452;18.652;2023-12-04T11:37:58;10.67;;;5.93;;
81229;SDS011;70701;44.452;18.652;2023-12-04T11:40:24;8.07;;;4.73;;
81229;SDS011;70701;44.452;18.652;2023-12-04T11:42:53;8.57;;;4.90;;
81229;SDS011;70701;44.452;18.652;2023-12-04T11:45:19;7.80;;;3.90;;
81229;SDS011;70701;44.452;18.652;2023-12-04T11:47:55;9.40;;;5.33;;
81229;SDS011;70701;44.452;18.652;2023-12-04T11:50:24;11.57;;;5.80;;
81229;SDS011;70701;44.452;18.652;2023-12-04T11:52:50;9.63;;;5.27;;
81229;SDS011;70701;44.452;18.652;2023-12-04T11:55:22;9.40;;;4.73;;
81229;SDS011;70701;44.452;18.652;2023-12-04T11:57:50;12.60;;;5.73;;
81229;SDS011;70701;44.452;18.652;2023-12-04T12:05:19;16.97;;;8.60;;
81229;SDS011;70701;44.452;18.652;2023-12-04T12:07:45;15.53;;;8.20;;
81229;SDS011;70701;44.452;18.652;2023-12-04T12:10:11;17.23;;;9.03;;
81229;SDS011;70701;44.452;18.652;2023-12-04T12:12:42;15.17;;;8.87;;
81229;SDS011;70701;44.452;18.652;2023-12-04T12:15:11;11.80;;;6.70;;
81229;SDS011;70701;44.452;18.652;2023-12-04T12:17:38;8.43;;;5.07;;
81229;SDS011;70701;44.452;18.652;2023-12-04T12:20:08;14.67;;;8.07;;
81229;SDS011;70701;44.452;18.652;2023-12-04T12:22:36;55.07;;;25.83;;
81229;SDS011;70701;44.452;18.652;2023-12-04T12:25:12;26.27;;;12.97;;
81229;SDS011;70701;44.452;18.652;2023-12-04T12:27:39;44.20;;;16.17;;
81229;SDS011;70701;44.452;18.652;2023-12-04T12:30:05;27.30;;;9.60;;
81229;SDS011;70701;44.452;18.652;2023-12-04T12:32:32;22.63;;;8.63;;
81229;SDS011;70701;44.452;18.652;2023-12-04T12:35:01;39.83;;;13.53;;
81229;SDS011;70701;44.452;18.652;2023-12-04T12:37:28;19.23;;;8.07;;
81229;SDS011;70701;44.452;18.652;2023-12-04T12:39:54;28.63;;;12.50;;
81229;SDS011;70701;44.452;18.652;2023-12-04T12:42:23;17.83;;;8.40;;
81229;SDS011;70701;44.452;18.652;2023-12-04T12:44:55;11.23;;;5.90;;
81229;SDS011;70701;44.452;18.652;2023-12-04T12:47:21;10.43;;;5.33;;
81229;SDS011;70701;44.452;18.652;2023-12-04T12:49:48;15.00;;;7.10;;
81229;SDS011;70701;44.452;18.652;2023-12-04T12:52:14;8.90;;;4.73;;
81229;SDS011;70701;44.452;18.652;2023-12-04T12:54:40;13.07;;;6.03;;
81229;SDS011;70701;44.452;18.652;2023-12-04T12:57:06;12.87;;;6.17;;
81229;SDS011;70701;44.452;18.652;2023-12-04T12:59:32;13.10;;;6.80;;
81229;SDS011;70701;44.452;18.652;2023-12-04T13:01:58;15.20;;;8.20;;
81229;SDS011;70701;44.452;18.652;2023-12-04T13:04:36;20.80;;;9.10;;
81229;SDS011;70701;44.452;18.652;2023-12-04T13:07:03;17.70;;;8.97;;
81229;SDS011;70701;44.452;18.652;2023-12-04T13:09:31;13.67;;;7.17;;
81229;SDS011;70701;44.452;18.652;2023-12-04T13:11:57;13.63;;;6.43;;
81229;SDS011;70701;44.452;18.652;2023-12-04T13:14:23;10.37;;;6.20;;
81229;SDS011;70701;44.452;18.652;2023-12-04T13:16:49;9.23;;;5.10;;
81229;SDS011;70701;44.452;18.652;2023-12-04T13:19:15;10.73;;;5.23;;
81229;SDS011;70701;44.452;18.652;2023-12-04T13:21:42;12.53;;;5.57;;
81229;SDS011;70701;44.452;18.652;2023-12-04T13:24:10;9.90;;;5.60;;
81229;SDS011;70701;44.452;18.652;2023-12-04T13:26:36;7.87;;;5.13;;
81229;SDS011;70701;44.452;18.652;2023-12-04T13:29:02;15.07;;;6.97;;
81229;SDS011;70701;44.452;18.652;2023-12-04T13:31:27;64.30;;;31.67;;
81229;SDS011;70701;44.452;18.652;2023-12-04T13:33:53;37.57;;;19.50;;
81229;SDS011;70701;44.452;18.652;2023-12-04T13:36:19;39.77;;;19.43;;
81229;SDS011;70701;44.452;18.652;2023-12-04T13:38:45;37.23;;;16.03;;
81229;SDS011;70701;44.452;18.652;2023-12-04T13:41:11;20.03;;;11.17;;
81229;SDS011;70701;44.452;18.652;2023-12-04T13:43:55;21.00;;;9.60;;
81229;SDS011;70701;44.452;18.652;2023-12-04T13:46:23;20.10;;;8.93;;
81229;SDS011;70701;44.452;18.652;2023-12-04T13:48:48;17.77;;;8.37;;
81229;SDS011;70701;44.452;18.652;2023-12-04T13:51:14;16.77;;;7.50;;
81229;SDS011;70701;44.452;18.652;2023-12-04T13:53:40;18.93;;;9.97;;
81229;SDS011;70701;44.452;18.652;2023-12-04T13:56:10;19.57;;;9.00;;
81229;SDS011;70701;44.452;18.652;2023-12-04T13:58:48;25.60;;;10.20;;
81229;SDS011;70701;44.452;18.652;2023-12-04T14:01:24;15.73;;;8.70;;
81229;SDS011;70701;44.452;18.652;2023-12-04T14:03:55;15.32;;;8.32;;
81229;SDS011;70701;44.452;18.652;2023-12-04T14:06:30;26.30;;;13.60;;
81229;SDS011;70701;44.452;18.652;2023-12-04T14:08:56;23.87;;;12.70;;
81229;SDS011;70701;44.452;18.652;2023-12-04T14:11:22;21.10;;;12.03;;
81229;SDS011;70701;44.452;18.652;2023-12-04T14:13:49;20.37;;;11.13;;
81229;SDS011;70701;44.452;18.652;2023-12-04T14:16:15;21.90;;;10.80;;